sensor_id;sensor_type;location;lat;lon;timestamp;temperature;humidity
51500;DHT22;39101;53.478;6.158;2022-12-01T00:00:44;6.10;99.90
51500;DHT22;39101;53.478;6.158;2022-12-01T00:03:10;6.40;99.90
51500;DHT22;39101;53.478;6.158;2022-12-01T00:05:36;6.20;99.90
51500;DHT22;39101;53.478;6.158;2022-12-01T00:08:02;6.10;99.90
51500;DHT22;39101;53.478;6.158;2022-12-01T00:10:30;6.10;99.90
51500;DHT22;39101;53.478;6.158;2022-12-01T00:12:58;6.10;99.90
51500;DHT22;39101;53.478;6.158;2022-12-01T00:15:35;6.10;99.90
51500;DHT22;39101;53.478;6.158;2022-12-01T00:18:02;6.10;99.90
51500;DHT22;39101;53.478;6.158;2022-12-01T00:20:29;6.10;99.90
51500;DHT22;39101;53.478;6.158;2022-12-01T00:22:56;6.10;99.90
51500;DHT22;39101;53.478;6.158;2022-12-01T00:25:22;6.20;99.90
51500;DHT22;39101;53.478;6.158;2022-12-01T00:27:49;6.10;99.90
51500;DHT22;39101;53.478;6.158;2022-12-01T00:30:17;6.10;99.90
51500;DHT22;39101;53.478;6.158;2022-12-01T00:32:43;6.00;99.90
51500;DHT22;39101;53.478;6.158;2022-12-01T00:35:09;6.30;99.90
51500;DHT22;39101;53.478;6.158;2022-12-01T00:37:35;6.10;99.90
51500;DHT22;39101;53.478;6.158;2022-12-01T00:40:01;6.00;99.90
51500;DHT22;39101;53.478;6.158;2022-12-01T00:42:27;6.00;99.90
51500;DHT22;39101;53.478;6.158;2022-12-01T00:44:53;6.10;99.90
51500;DHT22;39101;53.478;6.158;2022-12-01T00:47:18;6.10;99.90
51500;DHT22;39101;53.478;6.158;2022-12-01T00:49:44;6.10;99.90
51500;DHT22;39101;53.478;6.158;2022-12-01T00:52:11;5.90;99.90
51500;DHT22;39101;53.478;6.158;2022-12-01T00:54:37;6.10;99.90
51500;DHT22;39101;53.478;6.158;2022-12-01T00:57:03;5.90;99.90
51500;DHT22;39101;53.478;6.158;2022-12-01T00:59:28;6.00;99.90
51500;DHT22;39101;53.478;6.158;2022-12-01T01:01:54;6.10;99.90
51500;DHT22;39101;53.478;6.158;2022-12-01T01:04:20;5.90;99.90
51500;DHT22;39101;53.478;6.158;2022-12-01T01:06:46;6.00;99.90
51500;DHT22;39101;53.478;6.158;2022-12-01T01:09:12;6.30;99.90
51500;DHT22;39101;53.478;6.158;2022-12-01T01:11:39;6.00;99.90
51500;DHT22;39101;53.478;6.158;2022-12-01T01:14:05;6.10;99.90
51500;DHT22;39101;53.478;6.158;2022-12-01T01:16:31;5.90;99.90
51500;DHT22;39101;53.478;6.158;2022-12-01T01:18:57;6.00;99.90
51500;DHT22;39101;53.478;6.158;2022-12-01T01:21:24;5.90;99.90
51500;DHT22;39101;53.478;6.158;2022-12-01T01:23:51;5.90;99.90
51500;DHT22;39101;53.478;6.158;2022-12-01T01:26:29;6.00;99.90
51500;DHT22;39101;53.478;6.158;2022-12-01T01:28:57;5.90;99.90
51500;DHT22;39101;53.478;6.158;2022-12-01T01:31:24;6.00;99.90
51500;DHT22;39101;53.478;6.158;2022-12-01T01:33:51;6.20;99.90
51500;DHT22;39101;53.478;6.158;2022-12-01T01:36:17;6.00;99.90
51500;DHT22;39101;53.478;6.158;2022-12-01T01:38:43;5.90;99.90
51500;DHT22;39101;53.478;6.158;2022-12-01T01:41:09;5.90;99.90
51500;DHT22;39101;53.478;6.158;2022-12-01T01:43:59;5.90;99.90
51500;DHT22;39101;53.478;6.158;2022-12-01T01:46:33;5.90;99.90
51500;DHT22;39101;53.478;6.158;2022-12-01T01:48:59;5.90;99.90
51500;DHT22;39101;53.478;6.158;2022-12-01T01:51:29;5.90;99.90
51500;DHT22;39101;53.478;6.158;2022-12-01T01:54:02;5.80;99.90
51500;DHT22;39101;53.478;6.158;2022-12-01T01:56:28;5.80;99.90
51500;DHT22;39101;53.478;6.158;2022-12-01T01:58:54;5.90;99.90
51500;DHT22;39101;53.478;6.158;2022-12-01T02:01:21;5.90;99.90
51500;DHT22;39101;53.478;6.158;2022-12-01T02:03:46;5.90;99.90
51500;DHT22;39101;53.478;6.158;2022-12-01T02:06:13;5.80;99.90
51500;DHT22;39101;53.478;6.158;2022-12-01T02:08:39;5.90;99.90
51500;DHT22;39101;53.478;6.158;2022-12-01T02:14:04;5.90;99.90
51500;DHT22;39101;53.478;6.158;2022-12-01T02:22:09;5.80;99.90
51500;DHT22;39101;53.478;6.158;2022-12-01T02:25:27;5.80;99.90
51500;DHT22;39101;53.478;6.158;2022-12-01T02:30:23;6.20;99.90
51500;DHT22;39101;53.478;6.158;2022-12-01T02:39:36;5.80;99.90
51500;DHT22;39101;53.478;6.158;2022-12-01T02:41:47;5.80;99.90
51500;DHT22;39101;53.478;6.158;2022-12-01T02:44:29;5.90;99.90
51500;DHT22;39101;53.478;6.158;2022-12-01T02:47:13;5.90;99.90
51500;DHT22;39101;53.478;6.158;2022-12-01T02:49:53;5.80;99.90
51500;DHT22;39101;53.478;6.158;2022-12-01T02:52:19;5.80;99.90
51500;DHT22;39101;53.478;6.158;2022-12-01T02:54:46;5.90;99.90
51500;DHT22;39101;53.478;6.158;2022-12-01T02:57:14;5.80;99.90
51500;DHT22;39101;53.478;6.158;2022-12-01T02:59:42;5.80;99.90
51500;DHT22;39101;53.478;6.158;2022-12-01T03:05:32;5.80;99.90
51500;DHT22;39101;53.478;6.158;2022-12-01T03:08:56;6.00;99.90
51500;DHT22;39101;53.478;6.158;2022-12-01T03:14:32;5.90;99.90
51500;DHT22;39101;53.478;6.158;2022-12-01T03:17:04;5.80;99.90
51500;DHT22;39101;53.478;6.158;2022-12-01T03:19:36;5.90;99.90
51500;DHT22;39101;53.478;6.158;2022-12-01T03:22:11;5.90;99.90
51500;DHT22;39101;53.478;6.158;2022-12-01T03:24:41;5.80;99.90
51500;DHT22;39101;53.478;6.158;2022-12-01T03:27:10;5.90;99.90
51500;DHT22;39101;53.478;6.158;2022-12-01T03:29:43;6.10;99.90
51500;DHT22;39101;53.478;6.158;2022-12-01T03:32:14;5.90;99.90
51500;DHT22;39101;53.478;6.158;2022-12-01T03:37:28;5.90;99.90
51500;DHT22;39101;53.478;6.158;2022-12-01T03:39:57;5.90;99.90
51500;DHT22;39101;53.478;6.158;2022-12-01T03:42:46;5.80;99.90
51500;DHT22;39101;53.478;6.158;2022-12-01T03:45:41;5.90;99.90
51500;DHT22;39101;53.478;6.158;2022-12-01T03:48:08;5.90;99.90
51500;DHT22;39101;53.478;6.158;2022-12-01T03:53:23;5.90;99.90
51500;DHT22;39101;53.478;6.158;2022-12-01T03:55:56;6.00;99.90
51500;DHT22;39101;53.478;6.158;2022-12-01T03:58:36;6.00;99.90
51500;DHT22;39101;53.478;6.158;2022-12-01T04:01:04;6.00;99.90
51500;DHT22;39101;53.478;6.158;2022-12-01T04:03:30;6.10;99.90
51500;DHT22;39101;53.478;6.158;2022-12-01T04:05:55;6.10;99.90
51500;DHT22;39101;53.478;6.158;2022-12-01T04:08:22;6.10;99.90
51500;DHT22;39101;53.478;6.158;2022-12-01T04:10:48;6.10;99.90
51500;DHT22;39101;53.478;6.158;2022-12-01T04:13:14;6.10;99.90
51500;DHT22;39101;53.478;6.158;2022-12-01T04:16:01;6.10;99.90
51500;DHT22;39101;53.478;6.158;2022-12-01T04:18:26;6.20;99.90
51500;DHT22;39101;53.478;6.158;2022-12-01T04:20:52;6.20;99.90
51500;DHT22;39101;53.478;6.158;2022-12-01T04:23:17;6.30;99.90
51500;DHT22;39101;53.478;6.158;2022-12-01T04:26:03;6.30;99.90
51500;DHT22;39101;53.478;6.158;2022-12-01T04:28:29;6.30;99.90
51500;DHT22;39101;53.478;6.158;2022-12-01T04:30:55;6.60;99.90
51500;DHT22;39101;53.478;6.158;2022-12-01T04:33:21;6.30;99.90
51500;DHT22;39101;53.478;6.158;2022-12-01T04:35:56;6.30;99.90
51500;DHT22;39101;53.478;6.158;2022-12-01T04:38:22;6.30;99.90
51500;DHT22;39101;53.478;6.158;2022-12-01T04:40:47;6.30;99.90
51500;DHT22;39101;53.478;6.158;2022-12-01T04:43:13;6.40;99.90
51500;DHT22;39101;53.478;6.158;2022-12-01T04:45:38;6.50;99.90
51500;DHT22;39101;53.478;6.158;2022-12-01T04:48:04;6.30;99.90
51500;DHT22;39101;53.478;6.158;2022-12-01T04:50:30;6.30;99.90
51500;DHT22;39101;53.478;6.158;2022-12-01T04:52:55;6.30;99.90
51500;DHT22;39101;53.478;6.158;2022-12-01T04:55:21;6.30;99.90
51500;DHT22;39101;53.478;6.158;2022-12-01T04:57:47;6.30;99.90
51500;DHT22;39101;53.478;6.158;2022-12-01T05:00:13;6.30;99.90
51500;DHT22;39101;53.478;6.158;2022-12-01T05:02:40;6.30;99.90
51500;DHT22;39101;53.478;6.158;2022-12-01T05:05:11;6.30;99.90
51500;DHT22;39101;53.478;6.158;2022-12-01T05:07:38;6.30;99.90
51500;DHT22;39101;53.478;6.158;2022-12-01T05:10:05;6.30;99.90
51500;DHT22;39101;53.478;6.158;2022-12-01T05:12:31;6.30;99.90
51500;DHT22;39101;53.478;6.158;2022-12-01T05:14:56;6.30;99.90
51500;DHT22;39101;53.478;6.158;2022-12-01T05:17:22;6.30;99.90
51500;DHT22;39101;53.478;6.158;2022-12-01T05:19:48;6.30;99.90
51500;DHT22;39101;53.478;6.158;2022-12-01T05:22:32;6.30;99.90
51500;DHT22;39101;53.478;6.158;2022-12-01T05:24:58;6.30;99.90
51500;DHT22;39101;53.478;6.158;2022-12-01T05:27:23;6.30;99.90
51500;DHT22;39101;53.478;6.158;2022-12-01T05:29:49;6.20;99.90
51500;DHT22;39101;53.478;6.158;2022-12-01T05:32:14;6.20;99.90
51500;DHT22;39101;53.478;6.158;2022-12-01T05:34:40;6.60;99.90
51500;DHT22;39101;53.478;6.158;2022-12-01T05:37:06;6.10;99.90
51500;DHT22;39101;53.478;6.158;2022-12-01T05:39:31;6.00;99.90
51500;DHT22;39101;53.478;6.158;2022-12-01T05:41:57;6.00;99.90
51500;DHT22;39101;53.478;6.158;2022-12-01T05:44:23;5.90;99.90
51500;DHT22;39101;53.478;6.158;2022-12-01T05:46:48;5.90;99.90
51500;DHT22;39101;53.478;6.158;2022-12-01T05:49:14;5.80;99.90
51500;DHT22;39101;53.478;6.158;2022-12-01T05:51:42;5.70;99.90
51500;DHT22;39101;53.478;6.158;2022-12-01T05:54:08;5.70;99.90
51500;DHT22;39101;53.478;6.158;2022-12-01T05:56:33;5.60;99.90
51500;DHT22;39101;53.478;6.158;2022-12-01T05:58:59;5.50;99.90
51500;DHT22;39101;53.478;6.158;2022-12-01T06:01:25;5.50;99.90
51500;DHT22;39101;53.478;6.158;2022-12-01T06:03:52;5.50;99.90
51500;DHT22;39101;53.478;6.158;2022-12-01T06:06:18;5.50;99.90
51500;DHT22;39101;53.478;6.158;2022-12-01T06:08:43;5.40;99.90
51500;DHT22;39101;53.478;6.158;2022-12-01T06:11:09;5.30;99.90
51500;DHT22;39101;53.478;6.158;2022-12-01T06:13:35;5.30;99.90
51500;DHT22;39101;53.478;6.158;2022-12-01T06:16:03;5.30;99.90
51500;DHT22;39101;53.478;6.158;2022-12-01T06:18:32;5.20;99.90
51500;DHT22;39101;53.478;6.158;2022-12-01T06:20:57;5.20;99.90
51500;DHT22;39101;53.478;6.158;2022-12-01T06:23:23;5.20;99.90
51500;DHT22;39101;53.478;6.158;2022-12-01T06:25:49;5.10;99.90
51500;DHT22;39101;53.478;6.158;2022-12-01T06:28:15;5.10;99.90
51500;DHT22;39101;53.478;6.158;2022-12-01T06:30:41;5.00;99.90
51500;DHT22;39101;53.478;6.158;2022-12-01T06:33:07;5.00;99.90
51500;DHT22;39101;53.478;6.158;2022-12-01T06:35:34;5.10;99.90
51500;DHT22;39101;53.478;6.158;2022-12-01T06:38:00;5.10;99.90
51500;DHT22;39101;53.478;6.158;2022-12-01T06:40:25;5.10;99.90
51500;DHT22;39101;53.478;6.158;2022-12-01T06:42:51;5.10;99.90
51500;DHT22;39101;53.478;6.158;2022-12-01T06:45:17;5.50;99.90
51500;DHT22;39101;53.478;6.158;2022-12-01T06:47:43;5.10;99.90
51500;DHT22;39101;53.478;6.158;2022-12-01T06:50:09;5.10;99.90
51500;DHT22;39101;53.478;6.158;2022-12-01T06:52:36;5.20;99.90
51500;DHT22;39101;53.478;6.158;2022-12-01T06:55:03;5.20;99.90
51500;DHT22;39101;53.478;6.158;2022-12-01T06:57:29;5.10;99.90
51500;DHT22;39101;53.478;6.158;2022-12-01T06:59:55;5.20;99.90
51500;DHT22;39101;53.478;6.158;2022-12-01T07:02:21;5.20;99.90
51500;DHT22;39101;53.478;6.158;2022-12-01T07:04:47;5.20;99.90
51500;DHT22;39101;53.478;6.158;2022-12-01T07:07:13;5.20;99.90
51500;DHT22;39101;53.478;6.158;2022-12-01T07:09:39;5.20;99.90
51500;DHT22;39101;53.478;6.158;2022-12-01T07:12:05;5.10;99.90
51500;DHT22;39101;53.478;6.158;2022-12-01T07:14:30;5.10;99.90
51500;DHT22;39101;53.478;6.158;2022-12-01T07:16:57;5.10;99.90
51500;DHT22;39101;53.478;6.158;2022-12-01T07:19:23;5.10;99.90
51500;DHT22;39101;53.478;6.158;2022-12-01T07:21:49;5.00;99.90
51500;DHT22;39101;53.478;6.158;2022-12-01T07:24:15;5.00;99.90
51500;DHT22;39101;53.478;6.158;2022-12-01T07:26:41;5.00;99.90
51500;DHT22;39101;53.478;6.158;2022-12-01T07:29:08;4.90;99.90
51500;DHT22;39101;53.478;6.158;2022-12-01T07:31:36;4.90;99.90
51500;DHT22;39101;53.478;6.158;2022-12-01T07:34:02;4.90;99.90
51500;DHT22;39101;53.478;6.158;2022-12-01T07:36:28;4.90;99.90
51500;DHT22;39101;53.478;6.158;2022-12-01T07:38:54;4.80;99.90
51500;DHT22;39101;53.478;6.158;2022-12-01T07:41:19;5.20;99.90
51500;DHT22;39101;53.478;6.158;2022-12-01T07:43:46;4.80;99.90
51500;DHT22;39101;53.478;6.158;2022-12-01T07:46:14;4.70;99.90
51500;DHT22;39101;53.478;6.158;2022-12-01T07:48:41;4.80;99.90
51500;DHT22;39101;53.478;6.158;2022-12-01T07:51:08;4.80;99.90
51500;DHT22;39101;53.478;6.158;2022-12-01T07:53:34;4.80;99.90
51500;DHT22;39101;53.478;6.158;2022-12-01T07:56:01;4.80;99.90
51500;DHT22;39101;53.478;6.158;2022-12-01T07:58:26;4.90;99.90
51500;DHT22;39101;53.478;6.158;2022-12-01T08:00:53;4.90;99.90
51500;DHT22;39101;53.478;6.158;2022-12-01T08:03:19;4.90;99.90
51500;DHT22;39101;53.478;6.158;2022-12-01T08:05:44;4.90;99.90
51500;DHT22;39101;53.478;6.158;2022-12-01T08:08:10;5.00;99.90
51500;DHT22;39101;53.478;6.158;2022-12-01T08:10:36;5.00;99.90
51500;DHT22;39101;53.478;6.158;2022-12-01T08:13:02;5.00;99.90
51500;DHT22;39101;53.478;6.158;2022-12-01T08:15:27;5.20;99.90
51500;DHT22;39101;53.478;6.158;2022-12-01T08:17:53;5.10;99.90
51500;DHT22;39101;53.478;6.158;2022-12-01T08:20:19;5.20;99.90
51500;DHT22;39101;53.478;6.158;2022-12-01T08:22:46;5.20;99.90
51500;DHT22;39101;53.478;6.158;2022-12-01T08:25:11;5.30;99.90
51500;DHT22;39101;53.478;6.158;2022-12-01T08:27:37;5.30;99.90
51500;DHT22;39101;53.478;6.158;2022-12-01T08:30:03;5.80;99.90
51500;DHT22;39101;53.478;6.158;2022-12-01T08:32:29;5.40;99.90
51500;DHT22;39101;53.478;6.158;2022-12-01T08:34:55;5.50;99.90
51500;DHT22;39101;53.478;6.158;2022-12-01T08:37:20;5.60;99.90
51500;DHT22;39101;53.478;6.158;2022-12-01T08:39:46;5.70;99.90
51500;DHT22;39101;53.478;6.158;2022-12-01T08:42:12;6.00;99.90
51500;DHT22;39101;53.478;6.158;2022-12-01T08:44:37;5.90;99.90
51500;DHT22;39101;53.478;6.158;2022-12-01T08:47:03;6.00;99.90
51500;DHT22;39101;53.478;6.158;2022-12-01T08:49:29;6.40;99.90
51500;DHT22;39101;53.478;6.158;2022-12-01T08:51:54;6.20;99.90
51500;DHT22;39101;53.478;6.158;2022-12-01T08:54:21;6.30;99.90
51500;DHT22;39101;53.478;6.158;2022-12-01T08:56:46;6.40;99.90
51500;DHT22;39101;53.478;6.158;2022-12-01T08:59:13;6.40;99.90
51500;DHT22;39101;53.478;6.158;2022-12-01T09:01:39;6.40;99.90
51500;DHT22;39101;53.478;6.158;2022-12-01T09:04:22;6.40;99.90
51500;DHT22;39101;53.478;6.158;2022-12-01T09:06:50;6.40;99.90
51500;DHT22;39101;53.478;6.158;2022-12-01T09:09:25;6.50;99.90
51500;DHT22;39101;53.478;6.158;2022-12-01T09:11:51;6.50;99.90
51500;DHT22;39101;53.478;6.158;2022-12-01T09:14:19;6.90;99.90
51500;DHT22;39101;53.478;6.158;2022-12-01T09:16:46;6.70;99.90
51500;DHT22;39101;53.478;6.158;2022-12-01T09:19:13;6.70;99.90
51500;DHT22;39101;53.478;6.158;2022-12-01T09:21:39;6.90;99.90
51500;DHT22;39101;53.478;6.158;2022-12-01T09:24:08;7.00;99.90
51500;DHT22;39101;53.478;6.158;2022-12-01T09:26:34;7.10;99.90
51500;DHT22;39101;53.478;6.158;2022-12-01T09:29:03;7.20;99.90
51500;DHT22;39101;53.478;6.158;2022-12-01T09:31:29;7.30;99.90
51500;DHT22;39101;53.478;6.158;2022-12-01T09:34:04;7.30;99.90
51500;DHT22;39101;53.478;6.158;2022-12-01T09:36:31;7.20;99.90
51500;DHT22;39101;53.478;6.158;2022-12-01T09:38:57;7.20;99.90
51500;DHT22;39101;53.478;6.158;2022-12-01T09:41:32;7.30;99.90
51500;DHT22;39101;53.478;6.158;2022-12-01T09:46:57;7.30;99.90
51500;DHT22;39101;53.478;6.158;2022-12-01T09:50:11;7.30;99.90
51500;DHT22;39101;53.478;6.158;2022-12-01T09:52:18;7.40;99.90
51500;DHT22;39101;53.478;6.158;2022-12-01T09:54:46;7.30;99.90
51500;DHT22;39101;53.478;6.158;2022-12-01T09:57:32;7.30;99.90
51500;DHT22;39101;53.478;6.158;2022-12-01T10:00:01;7.40;99.90
51500;DHT22;39101;53.478;6.158;2022-12-01T10:02:38;7.40;99.90
51500;DHT22;39101;53.478;6.158;2022-12-01T10:05:14;7.30;99.90
51500;DHT22;39101;53.478;6.158;2022-12-01T10:10:27;7.50;99.90
51500;DHT22;39101;53.478;6.158;2022-12-01T10:12:53;7.40;99.90
51500;DHT22;39101;53.478;6.158;2022-12-01T10:15:28;7.30;99.90
51500;DHT22;39101;53.478;6.158;2022-12-01T10:21:02;7.30;99.90
51500;DHT22;39101;53.478;6.158;2022-12-01T10:23:50;7.30;99.90
51500;DHT22;39101;53.478;6.158;2022-12-01T10:32:08;7.20;99.90
51500;DHT22;39101;53.478;6.158;2022-12-01T10:34:38;7.10;99.90
51500;DHT22;39101;53.478;6.158;2022-12-01T10:37:12;7.10;99.90
51500;DHT22;39101;53.478;6.158;2022-12-01T10:39:42;7.70;99.90
51500;DHT22;39101;53.478;6.158;2022-12-01T10:44:58;7.00;99.90
51500;DHT22;39101;53.478;6.158;2022-12-01T10:47:25;7.00;99.90
51500;DHT22;39101;53.478;6.158;2022-12-01T10:49:52;7.00;99.90
51500;DHT22;39101;53.478;6.158;2022-12-01T10:52:36;7.00;99.90
51500;DHT22;39101;53.478;6.158;2022-12-01T10:57:48;6.90;99.90
51500;DHT22;39101;53.478;6.158;2022-12-01T11:00:22;6.90;99.90
51500;DHT22;39101;53.478;6.158;2022-12-01T11:02:48;6.80;99.90
51500;DHT22;39101;53.478;6.158;2022-12-01T11:05:24;6.80;99.90
51500;DHT22;39101;53.478;6.158;2022-12-01T11:07:51;6.80;99.90
51500;DHT22;39101;53.478;6.158;2022-12-01T11:10:20;6.80;99.90
51500;DHT22;39101;53.478;6.158;2022-12-01T11:15:38;7.00;99.90
51500;DHT22;39101;53.478;6.158;2022-12-01T11:18:18;7.00;99.90
51500;DHT22;39101;53.478;6.158;2022-12-01T11:20:44;7.10;99.90
51500;DHT22;39101;53.478;6.158;2022-12-01T11:26:00;7.20;99.90
51500;DHT22;39101;53.478;6.158;2022-12-01T11:28:27;7.40;99.90
51500;DHT22;39101;53.478;6.158;2022-12-01T11:31:07;7.60;99.90
51500;DHT22;39101;53.478;6.158;2022-12-01T11:33:51;7.80;99.90
51500;DHT22;39101;53.478;6.158;2022-12-01T11:36:26;7.90;99.90
51500;DHT22;39101;53.478;6.158;2022-12-01T11:38:58;8.00;99.90
51500;DHT22;39101;53.478;6.158;2022-12-01T11:41:35;8.00;99.90
51500;DHT22;39101;53.478;6.158;2022-12-01T11:44:03;7.90;99.90
51500;DHT22;39101;53.478;6.158;2022-12-01T11:46:38;7.90;99.90
51500;DHT22;39101;53.478;6.158;2022-12-01T11:49:05;7.80;99.90
51500;DHT22;39101;53.478;6.158;2022-12-01T11:51:39;7.80;99.90
51500;DHT22;39101;53.478;6.158;2022-12-01T11:54:13;7.80;99.90
51500;DHT22;39101;53.478;6.158;2022-12-01T11:56:40;7.80;99.90
51500;DHT22;39101;53.478;6.158;2022-12-01T12:09:59;7.70;99.90
51500;DHT22;39101;53.478;6.158;2022-12-01T12:12:51;7.70;99.90
51500;DHT22;39101;53.478;6.158;2022-12-01T12:21:11;7.50;99.90
51500;DHT22;39101;53.478;6.158;2022-12-01T12:27:04;7.20;99.90
51500;DHT22;39101;53.478;6.158;2022-12-01T12:32:31;7.10;99.90
51500;DHT22;39101;53.478;6.158;2022-12-01T12:44:03;7.00;99.90
51500;DHT22;39101;53.478;6.158;2022-12-01T12:46:42;7.00;99.90
51500;DHT22;39101;53.478;6.158;2022-12-01T12:49:26;7.00;99.90
51500;DHT22;39101;53.478;6.158;2022-12-01T12:52:03;7.00;99.90
51500;DHT22;39101;53.478;6.158;2022-12-01T12:54:53;7.00;99.90
51500;DHT22;39101;53.478;6.158;2022-12-01T12:57:39;7.00;99.90
51500;DHT22;39101;53.478;6.158;2022-12-01T13:00:17;7.10;99.90
51500;DHT22;39101;53.478;6.158;2022-12-01T13:05:54;7.00;99.90
51500;DHT22;39101;53.478;6.158;2022-12-01T13:08:25;7.00;99.90
51500;DHT22;39101;53.478;6.158;2022-12-01T13:16:03;7.00;99.90
51500;DHT22;39101;53.478;6.158;2022-12-01T13:18:41;7.00;99.90
51500;DHT22;39101;53.478;6.158;2022-12-01T13:21:17;7.00;99.90
51500;DHT22;39101;53.478;6.158;2022-12-01T13:23:45;7.00;99.90
51500;DHT22;39101;53.478;6.158;2022-12-01T13:26:12;7.20;99.90
51500;DHT22;39101;53.478;6.158;2022-12-01T13:28:46;7.00;99.90
51500;DHT22;39101;53.478;6.158;2022-12-01T13:31:15;7.00;99.90
51500;DHT22;39101;53.478;6.158;2022-12-01T13:36:20;6.90;99.90
51500;DHT22;39101;53.478;6.158;2022-12-01T13:39:01;7.00;99.90
51500;DHT22;39101;53.478;6.158;2022-12-01T13:41:31;7.00;99.90
51500;DHT22;39101;53.478;6.158;2022-12-01T13:49:02;6.80;99.90
51500;DHT22;39101;53.478;6.158;2022-12-01T13:54:35;6.70;99.90
51500;DHT22;39101;53.478;6.158;2022-12-01T13:57:04;6.90;99.90
51500;DHT22;39101;53.478;6.158;2022-12-01T13:59:43;6.70;99.90
51500;DHT22;39101;53.478;6.158;2022-12-01T14:02:29;6.70;99.90
51500;DHT22;39101;53.478;6.158;2022-12-01T14:07:54;6.60;99.90
51500;DHT22;39101;53.478;6.158;2022-12-01T14:10:29;6.50;99.90
51500;DHT22;39101;53.478;6.158;2022-12-01T14:13:00;6.50;99.90
51500;DHT22;39101;53.478;6.158;2022-12-01T14:15:44;6.50;99.90
51500;DHT22;39101;53.478;6.158;2022-12-01T14:18:36;6.70;99.90
51500;DHT22;39101;53.478;6.158;2022-12-01T14:21:09;6.40;99.90
51500;DHT22;39101;53.478;6.158;2022-12-01T14:23:39;6.30;99.90
51500;DHT22;39101;53.478;6.158;2022-12-01T14:26:17;6.30;99.90
51500;DHT22;39101;53.478;6.158;2022-12-01T14:34:11;6.30;99.90
51500;DHT22;39101;53.478;6.158;2022-12-01T14:39:25;6.20;99.90
51500;DHT22;39101;53.478;6.158;2022-12-01T14:49:53;6.10;99.90
51500;DHT22;39101;53.478;6.158;2022-12-01T14:54:52;6.00;99.90
51500;DHT22;39101;53.478;6.158;2022-12-01T14:57:43;5.90;99.90
51500;DHT22;39101;53.478;6.158;2022-12-01T15:05:22;6.00;99.90
51500;DHT22;39101;53.478;6.158;2022-12-01T15:07:51;6.00;99.90
51500;DHT22;39101;53.478;6.158;2022-12-01T15:10:24;6.00;99.90
51500;DHT22;39101;53.478;6.158;2022-12-01T15:12:52;5.90;99.90
51500;DHT22;39101;53.478;6.158;2022-12-01T15:15:19;6.00;99.90
51500;DHT22;39101;53.478;6.158;2022-12-01T15:17:45;5.90;99.90
51500;DHT22;39101;53.478;6.158;2022-12-01T15:20:31;6.00;99.90
51500;DHT22;39101;53.478;6.158;2022-12-01T15:22:58;5.90;99.90
51500;DHT22;39101;53.478;6.158;2022-12-01T15:25:28;5.90;99.90
51500;DHT22;39101;53.478;6.158;2022-12-01T15:28:17;5.80;99.90
51500;DHT22;39101;53.478;6.158;2022-12-01T15:30:47;5.70;99.90
51500;DHT22;39101;53.478;6.158;2022-12-01T15:33:31;5.80;99.90
51500;DHT22;39101;53.478;6.158;2022-12-01T15:35:58;5.80;99.90
51500;DHT22;39101;53.478;6.158;2022-12-01T15:38:33;5.80;99.90
51500;DHT22;39101;53.478;6.158;2022-12-01T15:41:01;5.70;99.90
51500;DHT22;39101;53.478;6.158;2022-12-01T15:43:32;5.60;99.90
51500;DHT22;39101;53.478;6.158;2022-12-01T15:46:15;5.60;99.90
51500;DHT22;39101;53.478;6.158;2022-12-01T15:48:41;5.70;99.90
51500;DHT22;39101;53.478;6.158;2022-12-01T15:51:17;5.70;99.90
51500;DHT22;39101;53.478;6.158;2022-12-01T15:53:51;5.60;99.90
51500;DHT22;39101;53.478;6.158;2022-12-01T15:56:25;5.60;99.90
51500;DHT22;39101;53.478;6.158;2022-12-01T15:58:55;5.70;99.90
51500;DHT22;39101;53.478;6.158;2022-12-01T16:01:28;5.50;99.90
51500;DHT22;39101;53.478;6.158;2022-12-01T16:04:11;5.50;99.90
51500;DHT22;39101;53.478;6.158;2022-12-01T16:06:39;5.60;99.90
51500;DHT22;39101;53.478;6.158;2022-12-01T16:09:25;5.60;99.90
51500;DHT22;39101;53.478;6.158;2022-12-01T16:17:48;5.50;99.90
51500;DHT22;39101;53.478;6.158;2022-12-01T16:22:57;5.50;99.90
51500;DHT22;39101;53.478;6.158;2022-12-01T16:25:38;5.50;99.90
51500;DHT22;39101;53.478;6.158;2022-12-01T16:28:22;5.40;99.90
51500;DHT22;39101;53.478;6.158;2022-12-01T16:30:48;5.40;99.90
51500;DHT22;39101;53.478;6.158;2022-12-01T16:33:21;5.40;99.90
51500;DHT22;39101;53.478;6.158;2022-12-01T16:35:47;5.30;99.90
51500;DHT22;39101;53.478;6.158;2022-12-01T16:38:15;5.50;99.90
51500;DHT22;39101;53.478;6.158;2022-12-01T16:40:46;5.40;99.90
51500;DHT22;39101;53.478;6.158;2022-12-01T16:43:17;5.40;99.90
51500;DHT22;39101;53.478;6.158;2022-12-01T16:45:44;5.40;99.90
51500;DHT22;39101;53.478;6.158;2022-12-01T16:48:10;5.40;99.90
51500;DHT22;39101;53.478;6.158;2022-12-01T16:50:36;6.00;99.90
51500;DHT22;39101;53.478;6.158;2022-12-01T16:53:02;5.20;99.90
51500;DHT22;39101;53.478;6.158;2022-12-01T16:58:08;5.10;99.90
51500;DHT22;39101;53.478;6.158;2022-12-01T17:00:34;5.30;99.90
51500;DHT22;39101;53.478;6.158;2022-12-01T17:03:00;5.30;99.90
51500;DHT22;39101;53.478;6.158;2022-12-01T17:05:26;5.20;99.90
51500;DHT22;39101;53.478;6.158;2022-12-01T17:07:52;5.10;99.90
51500;DHT22;39101;53.478;6.158;2022-12-01T17:10:18;5.20;99.90
51500;DHT22;39101;53.478;6.158;2022-12-01T17:12:44;5.00;99.90
51500;DHT22;39101;53.478;6.158;2022-12-01T17:15:10;5.20;99.90
51500;DHT22;39101;53.478;6.158;2022-12-01T17:17:36;5.30;99.90
51500;DHT22;39101;53.478;6.158;2022-12-01T17:20:04;5.10;99.90
51500;DHT22;39101;53.478;6.158;2022-12-01T17:22:30;5.00;99.90
51500;DHT22;39101;53.478;6.158;2022-12-01T17:24:56;5.10;99.90
51500;DHT22;39101;53.478;6.158;2022-12-01T17:27:22;5.10;99.90
51500;DHT22;39101;53.478;6.158;2022-12-01T17:29:49;5.00;99.90
51500;DHT22;39101;53.478;6.158;2022-12-01T17:32:15;5.00;99.90
51500;DHT22;39101;53.478;6.158;2022-12-01T17:34:40;5.10;99.90
51500;DHT22;39101;53.478;6.158;2022-12-01T17:37:06;5.10;99.90
51500;DHT22;39101;53.478;6.158;2022-12-01T17:39:32;5.10;99.90
51500;DHT22;39101;53.478;6.158;2022-12-01T17:41:57;5.00;99.90
51500;DHT22;39101;53.478;6.158;2022-12-01T17:44:23;5.00;99.90
51500;DHT22;39101;53.478;6.158;2022-12-01T17:46:49;5.00;99.90
51500;DHT22;39101;53.478;6.158;2022-12-01T17:49:14;5.00;99.90
51500;DHT22;39101;53.478;6.158;2022-12-01T17:51:40;5.00;99.90
51500;DHT22;39101;53.478;6.158;2022-12-01T17:54:06;5.00;99.90
51500;DHT22;39101;53.478;6.158;2022-12-01T17:56:32;5.00;99.90
51500;DHT22;39101;53.478;6.158;2022-12-01T17:58:58;5.30;99.90
51500;DHT22;39101;53.478;6.158;2022-12-01T18:01:24;5.00;99.90
51500;DHT22;39101;53.478;6.158;2022-12-01T18:03:49;4.90;99.90
51500;DHT22;39101;53.478;6.158;2022-12-01T18:06:16;4.90;99.90
51500;DHT22;39101;53.478;6.158;2022-12-01T18:08:44;4.90;99.90
51500;DHT22;39101;53.478;6.158;2022-12-01T18:11:12;4.90;99.90
51500;DHT22;39101;53.478;6.158;2022-12-01T18:13:46;4.90;99.90
51500;DHT22;39101;53.478;6.158;2022-12-01T18:16:17;4.90;99.90
51500;DHT22;39101;53.478;6.158;2022-12-01T18:18:44;4.90;99.90
51500;DHT22;39101;53.478;6.158;2022-12-01T18:21:12;4.90;99.90
51500;DHT22;39101;53.478;6.158;2022-12-01T18:23:38;5.30;99.90